createdAt,value
2023-02-20T00:01:39.969Z,7.20
2023-02-20T00:04:09.597Z,7.20
2023-02-20T00:06:36.232Z,7.10
2023-02-20T00:09:02.940Z,7.10
2023-02-20T00:11:30.394Z,7.00
2023-02-20T00:13:59.638Z,7.00
2023-02-20T00:16:26.296Z,6.90
2023-02-20T00:18:52.977Z,6.90
2023-02-20T00:21:19.684Z,6.80
2023-02-20T00:23:46.381Z,6.80
2023-02-20T00:26:14.812Z,6.80
2023-02-20T00:28:43.013Z,6.80
2023-02-20T00:31:14.942Z,6.80
2023-02-20T00:33:44.338Z,6.70
2023-02-20T00:36:19.460Z,6.60
2023-02-20T00:38:46.836Z,6.60
2023-02-20T00:41:15.468Z,6.60
2023-02-20T00:43:44.681Z,6.70
2023-02-20T00:46:13.571Z,6.60
2023-02-20T00:48:43.434Z,6.60
2023-02-20T00:51:10.099Z,6.50
2023-02-20T00:53:39.248Z,6.60
2023-02-20T00:56:08.538Z,6.40
2023-02-20T00:58:35.211Z,6.40
2023-02-20T01:01:01.881Z,6.40
2023-02-20T01:03:28.536Z,6.40
2023-02-20T01:05:57.508Z,6.40
2023-02-20T01:08:26.489Z,6.40
2023-02-20T01:10:53.333Z,6.40
2023-02-20T01:13:22.386Z,6.30
2023-02-20T01:15:51.341Z,6.40
2023-02-20T01:18:18.392Z,6.30
2023-02-20T01:20:47.321Z,6.40
2023-02-20T01:23:16.554Z,6.40
2023-02-20T01:25:43.298Z,6.40
2023-02-20T01:28:12.361Z,6.40
2023-02-20T01:30:39.120Z,6.40
2023-02-20T01:33:05.911Z,6.40
2023-02-20T01:35:34.796Z,6.30
2023-02-20T01:38:06.320Z,6.30
2023-02-20T01:40:34.858Z,6.40
2023-02-20T01:43:04.618Z,6.40
2023-02-20T01:45:37.023Z,6.50
2023-02-20T01:48:07.229Z,6.60
2023-02-20T01:50:40.154Z,6.60
2023-02-20T01:53:12.439Z,6.70
2023-02-20T01:55:55.329Z,6.70
2023-02-20T01:58:37.046Z,6.80
2023-02-20T02:01:04.933Z,6.70
2023-02-20T02:03:36.103Z,6.70
2023-02-20T02:06:07.187Z,6.70
2023-02-20T02:08:36.497Z,6.80
2023-02-20T02:11:06.703Z,6.80
2023-02-20T02:13:35.132Z,6.80
2023-02-20T02:16:14.302Z,6.80
2023-02-20T02:18:59.807Z,6.90
2023-02-20T02:22:06.647Z,6.80
2023-02-20T02:25:10.986Z,6.90
2023-02-20T02:27:37.704Z,6.90
2023-02-20T02:30:30.706Z,6.90
2023-02-20T02:33:41.752Z,6.80
2023-02-20T02:36:18.656Z,6.80
2023-02-20T02:39:16.058Z,6.80
2023-02-20T02:41:42.716Z,6.80
2023-02-20T02:44:14.757Z,6.70
2023-02-20T02:46:44.025Z,6.70
2023-02-20T02:49:35.512Z,6.70
2023-02-20T02:52:04.324Z,6.70
2023-02-20T02:54:35.705Z,6.60
2023-02-20T02:57:23.134Z,6.60
2023-02-20T02:59:59.272Z,6.50
2023-02-20T03:02:33.073Z,6.70
2023-02-20T03:05:03.056Z,6.50
2023-02-20T03:07:33.619Z,6.40
2023-02-20T03:10:10.603Z,6.30
2023-02-20T03:12:41.727Z,6.30
2023-02-20T03:15:32.968Z,6.30
2023-02-20T03:18:24.422Z,6.20
2023-02-20T03:20:58.837Z,6.10
2023-02-20T03:23:32.969Z,6.10
2023-02-20T03:26:09.339Z,6.10
2023-02-20T03:28:42.771Z,6.00
2023-02-20T03:31:17.706Z,6.00
2023-02-20T03:34:11.883Z,6.00
2023-02-20T03:37:09.859Z,5.90
2023-02-20T03:40:04.144Z,5.90
2023-02-20T03:42:55.630Z,5.90
2023-02-20T03:45:24.971Z,5.90
2023-02-20T03:47:55.050Z,5.90
2023-02-20T03:50:21.692Z,5.90
2023-02-20T03:52:48.431Z,5.90
2023-02-20T03:55:15.207Z,5.90
2023-02-20T03:57:51.280Z,5.90
2023-02-20T04:00:27.337Z,5.90
2023-02-20T04:02:58.279Z,5.90
2023-02-20T04:05:32.213Z,5.80
2023-02-20T04:08:37.346Z,5.90
2023-02-20T04:11:29.952Z,5.90
2023-02-20T04:14:04.310Z,5.90
2023-02-20T04:16:37.063Z,6.00
2023-02-20T04:19:06.079Z,6.00
2023-02-20T04:21:41.835Z,6.00
2023-02-20T04:24:17.962Z,6.00
2023-02-20T04:26:48.281Z,6.20
2023-02-20T04:29:15.398Z,6.00
2023-02-20T04:31:44.236Z,6.00
2023-02-20T04:34:10.953Z,5.90
2023-02-20T04:36:37.790Z,5.90
2023-02-20T04:39:04.433Z,5.80
2023-02-20T04:41:31.141Z,5.80
2023-02-20T04:44:19.151Z,5.70
2023-02-20T04:46:45.823Z,5.60
2023-02-20T04:49:12.611Z,5.90
2023-02-20T04:51:41.657Z,5.60
2023-02-20T04:54:08.291Z,5.60
2023-02-20T04:56:37.518Z,5.60
2023-02-20T04:59:08.909Z,5.60
2023-02-20T05:01:38.015Z,5.60
2023-02-20T05:04:05.029Z,5.50
2023-02-20T05:06:34.230Z,5.60
2023-02-20T05:09:05.149Z,5.60
2023-02-20T05:11:31.824Z,5.60
2023-02-20T05:14:00.963Z,5.60
2023-02-20T05:16:27.659Z,5.70
2023-02-20T05:18:54.315Z,5.70
2023-02-20T05:21:42.254Z,5.60
2023-02-20T05:24:09.743Z,5.60
2023-02-20T05:26:39.123Z,5.60
2023-02-20T05:29:13.565Z,5.60
2023-02-20T05:31:41.175Z,5.60
2023-02-20T05:34:08.780Z,5.70
2023-02-20T05:36:37.628Z,5.60
2023-02-20T05:39:04.919Z,5.60
2023-02-20T05:41:34.204Z,5.60
2023-02-20T05:44:00.905Z,5.60
2023-02-20T05:46:27.929Z,5.60
2023-02-20T05:48:55.273Z,5.60
2023-02-20T05:51:27.470Z,5.60
2023-02-20T05:53:54.867Z,5.60
2023-02-20T05:56:24.554Z,5.60
2023-02-20T05:58:51.460Z,5.60
2023-02-20T06:01:20.512Z,5.60
2023-02-20T06:03:47.526Z,5.60
2023-02-20T06:06:14.669Z,5.60
2023-02-20T06:08:41.810Z,5.50
2023-02-20T06:11:10.397Z,5.50
2023-02-20T06:13:39.669Z,5.50
2023-02-20T06:16:09.781Z,5.50
2023-02-20T06:18:43.334Z,5.60
2023-02-20T06:21:11.369Z,5.60
2023-02-20T06:23:39.062Z,5.70
2023-02-20T06:26:09.530Z,5.50
2023-02-20T06:28:38.131Z,5.60
2023-02-20T06:31:05.873Z,5.50
2023-02-20T06:33:32.736Z,5.50
2023-02-20T06:36:02.066Z,5.50
2023-02-20T06:38:28.757Z,5.50
2023-02-20T06:40:55.525Z,5.40
2023-02-20T06:43:22.229Z,5.40
2023-02-20T06:45:50.163Z,5.50
2023-02-20T06:48:17.525Z,5.50
2023-02-20T06:50:44.522Z,5.50
2023-02-20T06:53:11.194Z,5.60
2023-02-20T06:55:37.914Z,5.50
2023-02-20T06:58:04.634Z,5.60
2023-02-20T07:00:33.870Z,5.60
2023-02-20T07:03:02.939Z,5.70
2023-02-20T07:05:34.477Z,5.70
2023-02-20T07:08:03.403Z,5.70
2023-02-20T07:10:30.183Z,5.80
2023-02-20T07:12:59.321Z,5.90
2023-02-20T07:15:28.461Z,5.90
2023-02-20T07:17:55.137Z,5.90
2023-02-20T07:20:21.803Z,6.00
2023-02-20T07:22:52.535Z,6.00
2023-02-20T07:25:19.211Z,6.10
2023-02-20T07:27:45.877Z,6.10
2023-02-20T07:30:15.422Z,6.10
2023-02-20T07:32:44.263Z,6.20
2023-02-20T07:35:15.474Z,6.30
2023-02-20T07:37:44.626Z,6.40
2023-02-20T07:40:12.540Z,6.50
2023-02-20T07:42:39.256Z,6.50
2023-02-20T07:45:06.239Z,6.60
2023-02-20T07:47:35.021Z,6.60
2023-02-20T07:50:04.127Z,6.70
2023-02-20T07:52:30.771Z,6.70
2023-02-20T07:55:00.100Z,6.70
2023-02-20T07:57:26.964Z,6.70
2023-02-20T07:59:53.615Z,6.80
2023-02-20T08:02:25.563Z,6.90
2023-02-20T08:04:52.299Z,7.10
2023-02-20T08:07:21.294Z,7.20
2023-02-20T08:09:50.626Z,7.30
2023-02-20T08:12:19.588Z,7.40
2023-02-20T08:14:46.284Z,7.50
2023-02-20T08:17:12.968Z,7.60
2023-02-20T08:19:39.674Z,7.80
2023-02-20T08:22:07.896Z,7.80
2023-02-20T08:24:37.085Z,7.90
2023-02-20T08:27:06.235Z,7.90
2023-02-20T08:29:33.038Z,8.00
2023-02-20T08:31:59.856Z,8.10
2023-02-20T08:34:26.556Z,8.10
2023-02-20T08:36:55.886Z,8.30
2023-02-20T08:39:26.809Z,8.30
2023-02-20T08:41:53.551Z,8.30
2023-02-20T08:44:20.345Z,8.30
2023-02-20T08:46:51.576Z,8.50
2023-02-20T08:49:21.092Z,8.50
2023-02-20T08:51:52.747Z,8.50
2023-02-20T08:54:19.510Z,8.50
2023-02-20T08:56:46.238Z,8.50
2023-02-20T08:59:12.924Z,8.50
2023-02-20T09:01:45.233Z,8.50
2023-02-20T09:04:11.923Z,8.40
2023-02-20T09:06:40.840Z,8.60
2023-02-20T09:09:07.586Z,8.60
2023-02-20T09:11:34.328Z,8.50
2023-02-20T09:14:01.170Z,8.60
2023-02-20T09:16:31.365Z,8.60
2023-02-20T09:19:01.099Z,8.60
2023-02-20T09:21:30.689Z,8.50
2023-02-20T09:23:57.404Z,8.40
2023-02-20T09:26:24.070Z,8.40
2023-02-20T09:28:50.795Z,8.40
2023-02-20T09:31:18.588Z,8.50
2023-02-20T09:33:51.417Z,8.50
2023-02-20T09:36:18.649Z,8.70
2023-02-20T09:38:45.331Z,8.70
2023-02-20T09:41:34.945Z,8.90
2023-02-20T09:44:31.292Z,9.00
2023-02-20T09:47:07.512Z,9.00
2023-02-20T09:49:38.659Z,8.90
2023-02-20T09:52:12.550Z,8.90
2023-02-20T09:55:00.160Z,9.00
2023-02-20T09:57:29.651Z,8.90
2023-02-20T10:00:08.680Z,8.90
2023-02-20T10:02:42.991Z,8.90
2023-02-20T10:05:24.115Z,9.10
2023-02-20T10:07:52.072Z,9.30
2023-02-20T10:10:26.924Z,9.20
2023-02-20T10:13:21.931Z,9.30
2023-02-20T10:16:02.449Z,9.40
2023-02-20T10:18:50.835Z,9.50
2023-02-20T10:21:48.494Z,9.50
2023-02-20T10:24:53.439Z,9.40
2023-02-20T10:27:32.628Z,9.30
2023-02-20T10:30:05.672Z,9.20
2023-02-20T10:32:39.018Z,9.30
2023-02-20T10:35:15.319Z,9.40
2023-02-20T10:37:49.892Z,9.60
2023-02-20T10:40:39.629Z,9.50
2023-02-20T10:43:23.909Z,9.70
2023-02-20T10:46:07.992Z,9.90
2023-02-20T10:48:35.772Z,10.00
2023-02-20T10:51:33.056Z,10.10
2023-02-20T10:54:12.795Z,10.10
2023-02-20T10:56:46.920Z,10.30
2023-02-20T10:59:20.907Z,10.40
2023-02-20T11:01:52.168Z,10.40
2023-02-20T11:04:26.918Z,10.40
2023-02-20T11:07:02.327Z,10.50
2023-02-20T11:09:31.886Z,10.70
2023-02-20T11:11:59.774Z,10.60
2023-02-20T11:14:43.557Z,10.50
2023-02-20T11:17:17.534Z,10.60
2023-02-20T11:19:47.733Z,10.50
2023-02-20T11:22:16.051Z,10.50
2023-02-20T11:24:44.766Z,10.30
2023-02-20T11:27:27.575Z,10.30
2023-02-20T11:30:18.556Z,10.20
2023-02-20T11:32:47.949Z,10.20
2023-02-20T11:35:16.781Z,10.20
2023-02-20T11:37:54.753Z,10.20
2023-02-20T11:40:31.704Z,10.20
2023-02-20T11:43:13.941Z,10.30
2023-02-20T11:45:41.241Z,10.40
2023-02-20T11:48:15.321Z,10.40
2023-02-20T11:50:45.372Z,10.30
2023-02-20T11:53:34.081Z,10.30
2023-02-20T11:56:21.956Z,10.20
2023-02-20T11:58:48.745Z,10.30
2023-02-20T12:01:38.077Z,10.30
2023-02-20T12:04:19.143Z,10.30
2023-02-20T12:06:48.149Z,10.70
2023-02-20T12:09:18.981Z,10.90
2023-02-20T12:11:45.733Z,10.90
2023-02-20T12:14:15.678Z,10.90
2023-02-20T12:16:53.280Z,11.10
2023-02-20T12:19:38.362Z,11.10
2023-02-20T12:22:14.915Z,11.30
2023-02-20T12:25:11.895Z,11.40
2023-02-20T12:28:18.125Z,11.50
2023-02-20T12:31:22.674Z,11.50
2023-02-20T12:34:05.069Z,11.70
2023-02-20T12:36:40.820Z,11.60
2023-02-20T12:39:17.280Z,11.50
2023-02-20T12:42:06.147Z,11.40
2023-02-20T12:45:01.589Z,11.40
2023-02-20T12:47:31.154Z,11.40
2023-02-20T12:50:26.057Z,11.40
2023-02-20T12:53:04.244Z,11.50
2023-02-20T12:56:08.036Z,11.60
2023-02-20T12:58:45.344Z,11.80
2023-02-20T13:01:14.346Z,12.00
2023-02-20T13:04:10.229Z,12.10
2023-02-20T13:07:04.358Z,12.20
2023-02-20T13:09:38.756Z,12.30
2023-02-20T13:12:13.752Z,12.30
2023-02-20T13:15:12.416Z,12.50
2023-02-20T13:20:26.446Z,12.40
2023-02-20T13:23:06.521Z,12.40
2023-02-20T13:25:47.781Z,12.50
2023-02-20T13:28:20.361Z,12.50
2023-02-20T13:31:06.766Z,12.50
2023-02-20T13:33:36.402Z,12.50
2023-02-20T13:36:13.217Z,12.40
2023-02-20T13:38:42.331Z,12.30
2023-02-20T13:41:09.887Z,12.20
2023-02-20T13:43:37.995Z,12.20
2023-02-20T13:46:07.837Z,12.40
2023-02-20T13:48:34.498Z,12.60
2023-02-20T13:51:16.295Z,12.60
2023-02-20T13:53:45.660Z,12.60
2023-02-20T13:56:21.704Z,12.50
2023-02-20T13:58:50.483Z,12.40
2023-02-20T14:01:17.675Z,12.40
2023-02-20T14:03:46.555Z,12.50
2023-02-20T14:06:15.117Z,12.50
2023-02-20T14:08:47.955Z,12.40
2023-02-20T14:11:33.365Z,12.50
2023-02-20T14:14:08.316Z,12.50
2023-02-20T14:16:38.163Z,12.40
2023-02-20T14:19:14.489Z,12.40
2023-02-20T14:21:43.653Z,12.50
2023-02-20T14:24:30.409Z,12.60
2023-02-20T14:26:57.346Z,12.80
2023-02-20T14:29:28.281Z,12.90
2023-02-20T14:31:57.020Z,13.00
2023-02-20T14:34:34.880Z,13.00
2023-02-20T14:37:20.551Z,13.10
2023-02-20T14:40:10.958Z,13.30
2023-02-20T14:42:44.301Z,13.80
2023-02-20T14:45:21.449Z,14.90
2023-02-20T14:47:52.710Z,15.40
2023-02-20T14:53:14.215Z,16.50
2023-02-20T14:55:49.180Z,17.40
2023-02-20T15:00:45.366Z,18.50
2023-02-20T15:11:15.174Z,21.50
2023-02-20T15:13:44.884Z,21.20
2023-02-20T15:16:14.384Z,20.50
2023-02-20T15:18:42.351Z,20.10
2023-02-20T15:32:30.015Z,16.50
2023-02-20T15:37:34.336Z,15.20
2023-02-20T15:40:29.806Z,14.80
2023-02-20T15:43:04.316Z,14.50
2023-02-20T15:45:35.542Z,14.20
2023-02-20T15:50:29.518Z,13.90
2023-02-20T15:52:58.515Z,13.90
2023-02-20T15:57:57.985Z,13.20
2023-02-20T16:05:27.503Z,13.20
2023-02-20T16:07:55.848Z,13.10
2023-02-20T16:10:25.819Z,12.90
2023-02-20T16:12:54.985Z,12.80
2023-02-20T16:15:21.926Z,12.70
2023-02-20T16:17:49.669Z,12.60
2023-02-20T16:20:27.840Z,12.40
2023-02-20T16:22:54.978Z,12.30
2023-02-20T16:25:26.723Z,12.10
2023-02-20T16:27:58.231Z,12.00
2023-02-20T16:30:40.086Z,11.80
2023-02-20T16:33:16.404Z,11.80
2023-02-20T16:35:44.188Z,11.70
2023-02-20T16:38:10.947Z,11.40
2023-02-20T16:40:39.966Z,11.50
2023-02-20T16:43:06.928Z,11.40
2023-02-20T16:45:34.391Z,11.40
2023-02-20T16:48:03.334Z,11.30
2023-02-20T16:50:30.514Z,11.20
2023-02-20T16:53:03.274Z,11.10
2023-02-20T16:55:35.076Z,11.00
2023-02-20T16:58:04.932Z,10.90
2023-02-20T17:00:33.881Z,10.90
2023-02-20T17:03:00.984Z,10.80
2023-02-20T17:05:36.459Z,10.70
2023-02-20T17:08:03.784Z,10.50
2023-02-20T17:10:30.985Z,10.50
2023-02-20T17:13:00.555Z,10.50
2023-02-20T17:15:29.597Z,10.40
2023-02-20T17:17:57.132Z,10.40
2023-02-20T17:20:28.819Z,10.30
2023-02-20T17:23:05.046Z,10.20
2023-02-20T17:25:33.456Z,10.20
2023-02-20T17:28:00.447Z,10.20
2023-02-20T17:30:27.286Z,10.20
2023-02-20T17:32:54.043Z,10.20
2023-02-20T17:35:20.779Z,10.20
2023-02-20T17:37:50.151Z,10.20
2023-02-20T17:40:17.276Z,10.20
2023-02-20T17:42:46.257Z,10.20
2023-02-20T17:45:14.390Z,10.20
2023-02-20T17:47:41.076Z,10.20
2023-02-20T17:50:08.083Z,10.10
2023-02-20T17:52:37.641Z,10.00
2023-02-20T17:55:04.525Z,10.00
2023-02-20T17:57:33.060Z,9.90
2023-02-20T17:59:59.793Z,9.90
2023-02-20T18:02:26.590Z,9.90
2023-02-20T18:04:53.360Z,9.90
2023-02-20T18:07:20.300Z,9.90
2023-02-20T18:09:47.064Z,9.90
2023-02-20T18:12:13.797Z,9.90
2023-02-20T18:14:44.966Z,10.00
2023-02-20T18:17:14.502Z,10.10
2023-02-20T18:19:43.522Z,10.00
2023-02-20T18:22:10.272Z,10.00
2023-02-20T18:30:04.580Z,9.90
2023-02-20T18:32:31.968Z,9.90
2023-02-20T18:35:00.992Z,9.80
2023-02-20T18:37:28.019Z,9.90
2023-02-20T18:39:56.871Z,10.00
2023-02-20T18:42:28.768Z,10.00
2023-02-20T18:44:57.819Z,9.90
2023-02-20T18:47:25.464Z,10.00
2023-02-20T18:49:54.433Z,10.00
2023-02-20T18:52:24.382Z,10.00
2023-02-20T18:54:51.092Z,9.90
2023-02-20T18:57:18.104Z,9.80
2023-02-20T18:59:45.120Z,9.90
2023-02-20T19:02:15.727Z,9.80
2023-02-20T19:04:42.496Z,9.90
2023-02-20T19:09:38.234Z,9.70
2023-02-20T19:12:07.047Z,9.90
2023-02-20T19:14:36.114Z,9.90
2023-02-20T19:17:07.495Z,9.90
2023-02-20T19:19:34.497Z,9.90
2023-02-20T19:22:01.626Z,9.90
2023-02-20T19:24:30.962Z,9.90
2023-02-20T19:26:57.841Z,9.90
2023-02-20T19:29:27.479Z,9.90
2023-02-20T19:31:56.691Z,9.90
2023-02-20T19:34:28.317Z,9.90
2023-02-20T19:36:55.338Z,9.80
2023-02-20T19:39:22.189Z,9.90
2023-02-20T19:41:50.012Z,9.80
2023-02-20T19:44:16.980Z,9.80
2023-02-20T19:46:46.424Z,9.80
2023-02-20T19:49:17.090Z,9.80
2023-02-20T19:51:49.723Z,9.80
2023-02-20T19:54:18.171Z,9.70
2023-02-20T19:56:53.449Z,9.70
2023-02-20T19:59:20.929Z,9.70
2023-02-20T20:01:53.298Z,9.70
2023-02-20T20:04:22.198Z,9.70
2023-02-20T20:06:49.449Z,9.70
2023-02-20T20:09:26.887Z,9.70
2023-02-20T20:12:04.091Z,9.70
2023-02-20T20:14:30.857Z,9.70
2023-02-20T20:16:57.612Z,9.70
2023-02-20T20:19:27.006Z,9.70
2023-02-20T20:21:54.412Z,9.70
2023-02-20T20:24:21.209Z,9.70
2023-02-20T20:26:47.929Z,9.60
2023-02-20T20:29:14.648Z,9.60
2023-02-20T20:31:41.907Z,9.60
2023-02-20T20:34:11.531Z,9.60
2023-02-20T20:36:38.208Z,9.60
2023-02-20T20:39:05.236Z,9.60
2023-02-20T20:41:44.447Z,9.60
2023-02-20T20:44:13.033Z,9.60
2023-02-20T20:46:42.260Z,9.60
2023-02-20T20:49:13.862Z,9.40
2023-02-20T20:51:42.095Z,9.50
2023-02-20T20:54:11.721Z,9.70
2023-02-20T20:56:47.578Z,9.60
2023-02-20T20:59:15.120Z,9.60
2023-02-20T21:01:42.983Z,9.60
2023-02-20T21:04:13.480Z,9.50
2023-02-20T21:06:40.389Z,9.50
2023-02-20T21:09:07.161Z,9.50
2023-02-20T21:11:36.580Z,9.50
2023-02-20T21:14:03.488Z,9.50
2023-02-20T21:16:30.440Z,9.60
2023-02-20T21:18:57.418Z,9.60
2023-02-20T21:21:31.221Z,9.60
2023-02-20T21:24:00.597Z,9.60
2023-02-20T21:26:27.518Z,9.60
2023-02-20T21:28:55.415Z,9.60
2023-02-20T21:31:24.770Z,9.70
2023-02-20T21:33:52.747Z,9.70
2023-02-20T21:36:22.909Z,9.60
2023-02-20T21:38:49.869Z,9.60
2023-02-20T21:41:38.961Z,9.60
2023-02-20T21:44:24.581Z,9.60
2023-02-20T21:46:52.673Z,9.60
2023-02-20T21:49:19.401Z,9.70
2023-02-20T21:51:46.273Z,9.60
2023-02-20T21:54:14.712Z,9.60
2023-02-20T21:56:41.481Z,9.70
2023-02-20T21:59:08.269Z,9.60
2023-02-20T22:01:37.288Z,9.60
2023-02-20T22:04:05.431Z,9.70
2023-02-20T22:06:32.163Z,9.60
2023-02-20T22:09:20.064Z,9.60
2023-02-20T22:12:06.119Z,9.60
2023-02-20T22:14:51.655Z,9.60
2023-02-20T22:17:37.191Z,9.60
2023-02-20T22:20:23.495Z,9.60
2023-02-20T22:23:11.490Z,9.60
2023-02-20T22:25:56.839Z,9.60
2023-02-20T22:28:42.317Z,9.50
2023-02-20T22:31:27.681Z,9.50
2023-02-20T22:34:15.123Z,9.50
2023-02-20T22:37:02.266Z,9.50
2023-02-20T22:39:53.320Z,9.50
2023-02-20T22:42:38.724Z,9.40
2023-02-20T22:45:24.400Z,9.40
2023-02-20T22:48:09.897Z,9.40
2023-02-20T22:50:55.365Z,9.40
2023-02-20T22:53:40.899Z,9.40
2023-02-20T22:56:26.343Z,9.50
2023-02-20T22:59:11.792Z,9.40
2023-02-20T23:01:59.709Z,9.40
2023-02-20T23:04:45.111Z,9.40
2023-02-20T23:07:35.173Z,9.40
2023-02-20T23:10:20.836Z,9.40
2023-02-20T23:13:07.266Z,9.40
2023-02-20T23:15:52.801Z,9.40
2023-02-20T23:18:40.243Z,9.40
2023-02-20T23:21:26.011Z,9.40
2023-02-20T23:24:11.279Z,9.50
2023-02-20T23:26:56.627Z,9.50
2023-02-20T23:29:44.596Z,9.40
2023-02-20T23:32:30.123Z,9.50
2023-02-20T23:35:15.552Z,9.50
2023-02-20T23:38:01.005Z,9.50
2023-02-20T23:40:48.888Z,9.40
2023-02-20T23:43:34.317Z,9.40
2023-02-20T23:46:19.980Z,9.50
2023-02-20T23:49:05.453Z,9.30
2023-02-20T23:51:50.884Z,9.30
2023-02-20T23:54:39.015Z,9.40
2023-02-20T23:57:24.362Z,9.40
